createdAt,value
2022-10-28T00:01:21.401Z,17.70
2022-10-28T00:06:26.736Z,14.53
2022-10-28T00:11:31.971Z,21.43
2022-10-28T00:16:38.055Z,21.50
2022-10-28T00:21:43.006Z,23.60
2022-10-28T00:26:46.300Z,27.40
2022-10-28T00:31:50.947Z,24.07
2022-10-28T00:36:53.866Z,24.73
2022-10-28T00:41:58.331Z,24.00
2022-10-28T00:47:02.680Z,26.53
2022-10-28T00:52:10.241Z,20.67
2022-10-28T00:57:16.215Z,24.70
2022-10-28T01:02:21.249Z,20.23
2022-10-28T01:07:24.615Z,22.57
2022-10-28T01:12:36.404Z,21.17
2022-10-28T01:17:55.312Z,18.53
2022-10-28T01:23:05.566Z,17.30
2022-10-28T01:28:44.084Z,22.10
2022-10-28T01:33:53.854Z,17.30
2022-10-28T01:39:02.590Z,18.23
2022-10-28T01:44:10.388Z,13.47
2022-10-28T01:49:21.230Z,21.10
2022-10-28T01:54:28.433Z,16.60
2022-10-28T01:59:33.110Z,14.43
2022-10-28T02:04:37.383Z,16.23
2022-10-28T02:10:04.003Z,14.30
2022-10-28T02:15:23.387Z,12.57
2022-10-28T02:20:37.040Z,16.63
2022-10-28T02:25:44.527Z,17.17
2022-10-28T02:30:52.687Z,15.73
2022-10-28T02:36:01.751Z,14.50
2022-10-28T02:41:10.048Z,14.90
2022-10-28T02:46:15.703Z,13.37
2022-10-28T02:51:25.414Z,13.70
2022-10-28T02:56:31.446Z,10.67
2022-10-28T03:01:34.549Z,11.93
2022-10-28T03:06:39.024Z,17.03
2022-10-28T03:11:41.930Z,14.50
2022-10-28T03:16:44.935Z,16.63
2022-10-28T03:21:49.200Z,18.87
2022-10-28T03:26:52.104Z,15.30
2022-10-28T03:31:55.022Z,15.93
2022-10-28T03:36:59.313Z,15.70
2022-10-28T03:42:02.256Z,16.70
2022-10-28T03:47:05.254Z,17.13
2022-10-28T03:52:09.527Z,17.37
2022-10-28T03:57:12.431Z,18.03
2022-10-28T04:02:15.748Z,20.47
2022-10-28T04:07:20.336Z,13.80
2022-10-28T04:12:23.197Z,15.57
2022-10-28T04:17:26.141Z,18.17
2022-10-28T04:22:30.413Z,13.10
2022-10-28T04:27:33.302Z,15.57
2022-10-28T04:32:36.216Z,16.43
2022-10-28T04:37:41.321Z,16.80
2022-10-28T04:42:44.213Z,15.40
2022-10-28T04:47:47.135Z,15.80
2022-10-28T04:52:51.667Z,22.03
2022-10-28T04:57:56.071Z,20.70
2022-10-28T05:03:02.673Z,25.13
2022-10-28T05:08:07.263Z,20.27
2022-10-28T05:13:10.199Z,17.27
2022-10-28T05:18:13.077Z,14.87
2022-10-28T05:23:17.307Z,16.50
2022-10-28T05:28:20.296Z,22.83
2022-10-28T05:33:23.247Z,20.27
2022-10-28T05:38:27.805Z,18.73
2022-10-28T05:43:30.699Z,16.20
2022-10-28T05:48:34.703Z,16.50
2022-10-28T05:53:38.976Z,18.40
2022-10-28T05:58:41.861Z,14.97
2022-10-28T06:03:44.835Z,15.63
2022-10-28T06:08:49.365Z,15.00
2022-10-28T06:13:50.787Z,14.90
2022-10-28T06:18:53.752Z,23.57
2022-10-28T06:23:57.992Z,19.30
2022-10-28T06:29:00.933Z,21.10
2022-10-28T06:34:04.291Z,21.20
2022-10-28T06:39:08.614Z,19.83
2022-10-28T06:44:11.592Z,21.67
2022-10-28T06:49:16.160Z,17.83
2022-10-28T06:54:20.435Z,19.73
2022-10-28T06:59:23.355Z,20.60
2022-10-28T07:04:26.286Z,23.23
2022-10-28T07:09:30.768Z,20.53
2022-10-28T07:14:34.795Z,19.97
2022-10-28T07:19:37.730Z,19.57
2022-10-28T07:24:42.154Z,20.20
2022-10-28T07:29:45.057Z,21.00
2022-10-28T07:34:47.936Z,18.37
2022-10-28T07:39:52.257Z,19.10
2022-10-28T07:44:55.151Z,19.43
2022-10-28T07:49:58.150Z,22.90
2022-10-28T07:55:02.448Z,24.67
2022-10-28T08:00:08.259Z,25.60
2022-10-28T08:05:14.046Z,20.83
2022-10-28T08:10:18.363Z,25.43
2022-10-28T08:15:23.614Z,24.20
2022-10-28T08:20:26.593Z,23.10
2022-10-28T08:25:30.825Z,21.10
2022-10-28T08:30:50.183Z,20.03
2022-10-28T08:35:56.675Z,25.50
2022-10-28T08:41:11.194Z,23.33
2022-10-28T08:46:25.017Z,33.17
2022-10-28T08:51:37.965Z,23.60
2022-10-28T08:56:46.115Z,22.07
2022-10-28T09:06:58.150Z,24.47
2022-10-28T09:12:13.615Z,18.40
2022-10-28T09:17:20.257Z,17.13
2022-10-28T09:22:26.147Z,13.10
2022-10-28T09:27:44.729Z,24.33
2022-10-28T09:32:58.375Z,18.63
2022-10-28T09:38:13.120Z,17.93
2022-10-28T09:43:24.303Z,13.60
2022-10-28T09:48:30.470Z,18.30
2022-10-28T09:53:42.729Z,20.83
2022-10-28T09:58:48.497Z,20.40
2022-10-28T10:03:53.306Z,14.23
2022-10-28T10:08:57.175Z,14.90
2022-10-28T10:14:07.827Z,14.43
2022-10-28T10:19:12.173Z,15.50
2022-10-28T10:24:26.224Z,13.47
2022-10-28T10:29:32.243Z,14.53
2022-10-28T10:34:36.233Z,13.90
2022-10-28T10:39:39.911Z,14.23
2022-10-28T10:44:44.854Z,15.43
2022-10-28T10:49:49.802Z,15.30
2022-10-28T10:55:02.521Z,14.10
2022-10-28T11:00:08.462Z,12.90
2022-10-28T11:05:12.095Z,10.33
2022-10-28T11:10:23.260Z,12.57
2022-10-28T11:15:29.802Z,12.50
2022-10-28T11:20:47.232Z,13.57
2022-10-28T11:25:54.286Z,14.37
2022-10-28T11:36:22.860Z,11.13
2022-10-28T11:41:38.539Z,8.97
2022-10-28T11:46:55.977Z,9.50
2022-10-28T11:52:08.820Z,11.20
2022-10-28T11:57:16.677Z,14.03
2022-10-28T12:02:39.777Z,12.70
2022-10-28T12:07:55.251Z,13.97
2022-10-28T12:13:05.168Z,12.00
2022-10-28T12:18:19.565Z,12.20
2022-10-28T12:23:24.610Z,11.20
2022-10-28T12:28:31.427Z,9.80
2022-10-28T12:33:40.552Z,10.90
2022-10-28T12:38:49.335Z,9.97
2022-10-28T12:43:57.193Z,9.80
2022-10-28T12:49:11.338Z,10.60
2022-10-28T12:54:22.775Z,10.73
2022-10-28T12:59:31.781Z,13.70
2022-10-28T13:04:38.426Z,14.43
2022-10-28T13:10:07.507Z,10.67
2022-10-28T13:15:33.525Z,9.90
2022-10-28T13:20:48.665Z,15.90
2022-10-28T13:26:14.752Z,11.17
2022-10-28T13:31:18.599Z,12.67
2022-10-28T13:36:27.955Z,17.00
2022-10-28T13:41:41.029Z,20.10
2022-10-28T13:47:06.693Z,16.20
2022-10-28T13:52:21.876Z,14.40
2022-10-28T13:57:29.678Z,15.77
2022-10-28T14:02:38.631Z,17.90
2022-10-28T14:07:54.552Z,11.50
2022-10-28T14:13:00.966Z,22.97
2022-10-28T14:18:22.717Z,13.50
2022-10-28T14:24:07.912Z,15.93
2022-10-28T14:29:24.953Z,19.60
2022-10-28T14:34:41.156Z,14.30
2022-10-28T14:40:01.964Z,17.03
2022-10-28T14:45:21.612Z,21.43
2022-10-28T14:50:27.424Z,16.97
2022-10-28T14:55:34.176Z,18.03
2022-10-28T15:00:41.705Z,21.97
2022-10-28T15:05:44.677Z,29.70
2022-10-28T15:10:50.764Z,21.10
2022-10-28T15:15:57.353Z,19.30
2022-10-28T15:21:10.141Z,27.73
2022-10-28T15:26:16.576Z,16.87
2022-10-28T15:31:19.523Z,17.90
2022-10-28T15:36:24.556Z,18.10
2022-10-28T15:41:52.453Z,17.67
2022-10-28T15:46:57.020Z,19.17
2022-10-28T15:52:22.806Z,23.13
2022-10-28T15:57:29.456Z,30.47
2022-10-28T16:02:42.100Z,27.10
2022-10-28T16:07:46.051Z,34.83
2022-10-28T16:12:50.594Z,27.27
2022-10-28T16:17:54.000Z,34.13
2022-10-28T16:22:57.378Z,26.20
2022-10-28T16:28:01.686Z,26.63
2022-10-28T16:33:05.976Z,37.87
2022-10-28T16:38:13.668Z,29.53
2022-10-28T16:43:19.766Z,45.60
2022-10-28T16:48:25.104Z,26.30
2022-10-28T16:53:28.267Z,25.73
2022-10-28T16:58:35.170Z,28.47
2022-10-28T17:03:38.141Z,25.87
2022-10-28T17:14:05.313Z,28.33
2022-10-28T17:19:08.221Z,23.70
2022-10-28T17:24:11.408Z,28.00
2022-10-28T17:29:15.906Z,24.70
2022-10-28T17:34:18.898Z,23.33
2022-10-28T17:39:25.867Z,26.60
2022-10-28T17:44:30.858Z,29.97
2022-10-28T17:49:36.391Z,26.53
2022-10-28T17:54:39.471Z,26.70
2022-10-28T17:59:43.735Z,23.63
2022-10-28T18:04:46.693Z,26.87
2022-10-28T18:09:49.732Z,25.50
2022-10-28T18:14:54.041Z,78.67
2022-10-28T18:19:57.829Z,32.60
2022-10-28T18:25:00.905Z,36.00
2022-10-28T18:30:06.129Z,40.77
2022-10-28T18:35:09.749Z,32.13
2022-10-28T18:40:13.402Z,34.20
2022-10-28T18:45:18.023Z,31.40
2022-10-28T18:50:20.912Z,27.00
2022-10-28T18:55:25.003Z,31.20
2022-10-28T19:00:29.337Z,30.17
2022-10-28T19:05:33.414Z,28.57
2022-10-28T19:10:36.353Z,30.10
2022-10-28T19:15:47.225Z,22.23
2022-10-28T19:20:50.767Z,27.00
2022-10-28T19:25:57.537Z,21.13
2022-10-28T19:31:02.954Z,20.40
2022-10-28T19:36:08.000Z,25.30
2022-10-28T19:41:12.838Z,21.77
2022-10-28T19:46:19.810Z,23.23
2022-10-28T19:51:24.510Z,23.10
2022-10-28T19:56:28.526Z,25.37
2022-10-28T20:01:35.890Z,23.80
2022-10-28T20:06:40.633Z,22.00
2022-10-28T20:11:44.614Z,20.37
2022-10-28T20:16:49.285Z,29.23
2022-10-28T20:21:52.375Z,25.67
2022-10-28T20:26:55.403Z,36.13
2022-10-28T20:31:59.679Z,28.30
2022-10-28T20:37:02.617Z,25.87
2022-10-28T20:42:05.583Z,25.30
2022-10-28T20:47:09.834Z,25.33
2022-10-28T20:52:16.587Z,25.60
2022-10-28T20:57:19.574Z,20.60
2022-10-28T21:02:24.007Z,21.73
2022-10-28T21:07:26.993Z,27.70
2022-10-28T21:12:29.944Z,25.30
2022-10-28T21:17:34.179Z,24.43
2022-10-28T21:22:37.173Z,27.03
2022-10-28T21:27:40.080Z,24.87
2022-10-28T21:32:44.411Z,23.73
2022-10-28T21:37:47.451Z,26.37
2022-10-28T21:42:50.681Z,25.00
2022-10-28T21:47:56.762Z,22.90
2022-10-28T21:53:04.039Z,26.20
2022-10-28T21:58:07.326Z,24.53
2022-10-28T22:03:12.763Z,24.63
2022-10-28T22:08:16.937Z,29.73
2022-10-28T22:13:19.899Z,27.53
2022-10-28T22:18:24.217Z,22.90
2022-10-28T22:23:27.367Z,22.77
2022-10-28T22:28:30.298Z,26.00
2022-10-28T22:33:34.725Z,23.67
2022-10-28T22:38:38.031Z,24.83
2022-10-28T22:43:41.556Z,31.70
2022-10-28T22:48:46.293Z,34.53
2022-10-28T22:53:49.656Z,23.70
2022-10-28T22:58:55.102Z,24.03
2022-10-28T23:04:00.984Z,21.53
2022-10-28T23:09:04.296Z,23.97
2022-10-28T23:14:07.275Z,24.30
2022-10-28T23:19:11.524Z,24.40
2022-10-28T23:24:14.443Z,20.70
2022-10-28T23:29:17.339Z,19.90
2022-10-28T23:34:21.578Z,20.77
2022-10-28T23:39:24.738Z,17.67
2022-10-28T23:44:27.621Z,19.20
2022-10-28T23:49:31.937Z,26.00
2022-10-28T23:54:35.129Z,24.30
2022-10-28T23:59:38.013Z,34.83
